sensor_id;sensor_type;location;lat;lon;timestamp;temperature;humidity
76855;DHT22;66343;44.588;33.450;2023-02-15T00:01:12;4.89;67.64
76855;DHT22;66343;44.588;33.450;2023-02-15T00:03:45;4.92;67.45
76855;DHT22;66343;44.588;33.450;2023-02-15T00:06:17;5.00;67.49
76855;DHT22;66343;44.588;33.450;2023-02-15T00:08:46;5.03;66.56
76855;DHT22;66343;44.588;33.450;2023-02-15T00:11:18;5.02;65.97
76855;DHT22;66343;44.588;33.450;2023-02-15T00:14:13;5.01;66.68
76855;DHT22;66343;44.588;33.450;2023-02-15T00:16:45;5.01;65.60
76855;DHT22;66343;44.588;33.450;2023-02-15T00:19:16;5.03;65.91
76855;DHT22;66343;44.588;33.450;2023-02-15T00:21:49;5.00;67.06
76855;DHT22;66343;44.588;33.450;2023-02-15T00:24:19;4.98;66.73
76855;DHT22;66343;44.588;33.450;2023-02-15T00:26:53;4.97;66.65
76855;DHT22;66343;44.588;33.450;2023-02-15T00:29:24;5.00;67.34
76855;DHT22;66343;44.588;33.450;2023-02-15T00:31:58;5.00;67.42
76855;DHT22;66343;44.588;33.450;2023-02-15T00:34:28;4.94;66.73
76855;DHT22;66343;44.588;33.450;2023-02-15T00:37:00;4.93;66.46
76855;DHT22;66343;44.588;33.450;2023-02-15T00:39:34;4.88;68.59
76855;DHT22;66343;44.588;33.450;2023-02-15T00:42:06;4.79;69.61
76855;DHT22;66343;44.588;33.450;2023-02-15T00:44:38;4.58;71.80
76855;DHT22;66343;44.588;33.450;2023-02-15T00:47:12;4.52;72.69
76855;DHT22;66343;44.588;33.450;2023-02-15T00:49:44;4.45;72.44
76855;DHT22;66343;44.588;33.450;2023-02-15T00:52:15;4.48;72.39
76855;DHT22;66343;44.588;33.450;2023-02-15T00:54:45;4.53;74.05
76855;DHT22;66343;44.588;33.450;2023-02-15T00:57:19;4.60;72.70
76855;DHT22;66343;44.588;33.450;2023-02-15T00:59:50;4.63;71.47
76855;DHT22;66343;44.588;33.450;2023-02-15T01:02:22;4.62;71.57
76855;DHT22;66343;44.588;33.450;2023-02-15T01:04:53;4.64;71.13
76855;DHT22;66343;44.588;33.450;2023-02-15T01:07:25;4.66;70.30
76855;DHT22;66343;44.588;33.450;2023-02-15T01:10:02;4.69;69.42
76855;DHT22;66343;44.588;33.450;2023-02-15T01:12:39;4.74;69.55
76855;DHT22;66343;44.588;33.450;2023-02-15T01:15:09;4.74;68.85
76855;DHT22;66343;44.588;33.450;2023-02-15T01:17:38;4.76;68.56
76855;DHT22;66343;44.588;33.450;2023-02-15T01:20:13;4.71;68.39
76855;DHT22;66343;44.588;33.450;2023-02-15T01:22:47;4.69;68.65
76855;DHT22;66343;44.588;33.450;2023-02-15T01:25:20;4.68;68.07
76855;DHT22;66343;44.588;33.450;2023-02-15T01:27:50;4.72;68.91
76855;DHT22;66343;44.588;33.450;2023-02-15T01:30:27;4.72;69.78
76855;DHT22;66343;44.588;33.450;2023-02-15T01:32:59;4.73;68.87
76855;DHT22;66343;44.588;33.450;2023-02-15T01:35:39;4.65;68.36
76855;DHT22;66343;44.588;33.450;2023-02-15T01:38:08;4.67;68.87
76855;DHT22;66343;44.588;33.450;2023-02-15T01:40:40;4.68;69.55
76855;DHT22;66343;44.588;33.450;2023-02-15T01:43:40;4.69;68.73
76855;DHT22;66343;44.588;33.450;2023-02-15T01:46:12;4.67;69.55
76855;DHT22;66343;44.588;33.450;2023-02-15T01:48:52;4.64;69.62
76855;DHT22;66343;44.588;33.450;2023-02-15T01:51:31;4.60;70.49
76855;DHT22;66343;44.588;33.450;2023-02-15T01:54:29;4.61;69.36
76855;DHT22;66343;44.588;33.450;2023-02-15T01:57:13;4.57;69.57
76855;DHT22;66343;44.588;33.450;2023-02-15T01:59:49;4.56;69.62
76855;DHT22;66343;44.588;33.450;2023-02-15T02:02:27;4.56;69.26
76855;DHT22;66343;44.588;33.450;2023-02-15T02:05:01;4.50;69.96
76855;DHT22;66343;44.588;33.450;2023-02-15T02:07:42;4.48;69.59
76855;DHT22;66343;44.588;33.450;2023-02-15T02:10:18;4.48;69.04
76855;DHT22;66343;44.588;33.450;2023-02-15T02:12:52;4.46;69.00
76855;DHT22;66343;44.588;33.450;2023-02-15T02:15:57;4.51;69.32
76855;DHT22;66343;44.588;33.450;2023-02-15T02:22:46;4.51;69.29
76855;DHT22;66343;44.588;33.450;2023-02-15T02:34:16;4.60;69.16
76855;DHT22;66343;44.588;33.450;2023-02-15T02:36:56;4.58;69.49
76855;DHT22;66343;44.588;33.450;2023-02-15T02:42:44;4.52;69.69
76855;DHT22;66343;44.588;33.450;2023-02-15T02:45:42;4.54;69.77
76855;DHT22;66343;44.588;33.450;2023-02-15T02:48:21;4.57;70.23
76855;DHT22;66343;44.588;33.450;2023-02-15T02:50:58;4.57;70.21
76855;DHT22;66343;44.588;33.450;2023-02-15T02:53:33;4.57;69.46
76855;DHT22;66343;44.588;33.450;2023-02-15T02:56:17;4.60;69.36
76855;DHT22;66343;44.588;33.450;2023-02-15T02:58:55;4.58;69.99
76855;DHT22;66343;44.588;33.450;2023-02-15T03:01:41;4.58;69.94
76855;DHT22;66343;44.588;33.450;2023-02-15T03:04:19;4.58;68.89
76855;DHT22;66343;44.588;33.450;2023-02-15T03:06:57;4.57;68.76
76855;DHT22;66343;44.588;33.450;2023-02-15T03:12:27;4.45;69.42
76855;DHT22;66343;44.588;33.450;2023-02-15T03:15:05;4.46;70.44
76855;DHT22;66343;44.588;33.450;2023-02-15T03:17:53;4.45;69.84
76855;DHT22;66343;44.588;33.450;2023-02-15T03:20:29;4.44;70.13
76855;DHT22;66343;44.588;33.450;2023-02-15T03:23:05;4.54;69.33
76855;DHT22;66343;44.588;33.450;2023-02-15T03:26:00;4.56;68.87
76855;DHT22;66343;44.588;33.450;2023-02-15T03:28:42;4.47;68.95
76855;DHT22;66343;44.588;33.450;2023-02-15T03:31:17;4.45;69.55
76855;DHT22;66343;44.588;33.450;2023-02-15T03:33:55;4.41;69.26
76855;DHT22;66343;44.588;33.450;2023-02-15T03:39:50;4.43;69.51
76855;DHT22;66343;44.588;33.450;2023-02-15T03:45:13;4.49;69.91
76855;DHT22;66343;44.588;33.450;2023-02-15T03:47:48;4.45;69.00
76855;DHT22;66343;44.588;33.450;2023-02-15T03:50:28;4.47;69.73
76855;DHT22;66343;44.588;33.450;2023-02-15T03:53:20;4.41;69.84
76855;DHT22;66343;44.588;33.450;2023-02-15T03:55:54;4.44;69.65
76855;DHT22;66343;44.588;33.450;2023-02-15T03:58:26;4.46;69.14
76855;DHT22;66343;44.588;33.450;2023-02-15T04:01:33;4.41;69.60
76855;DHT22;66343;44.588;33.450;2023-02-15T04:07:00;4.38;70.23
76855;DHT22;66343;44.588;33.450;2023-02-15T04:09:32;4.39;70.40
76855;DHT22;66343;44.588;33.450;2023-02-15T04:12:20;4.38;69.61
76855;DHT22;66343;44.588;33.450;2023-02-15T04:14:54;4.37;69.04
76855;DHT22;66343;44.588;33.450;2023-02-15T04:17:49;4.33;69.45
76855;DHT22;66343;44.588;33.450;2023-02-15T04:20:20;4.39;70.02
76855;DHT22;66343;44.588;33.450;2023-02-15T04:23:11;4.41;69.27
76855;DHT22;66343;44.588;33.450;2023-02-15T04:26:03;4.31;69.61
76855;DHT22;66343;44.588;33.450;2023-02-15T04:28:38;4.27;70.30
76855;DHT22;66343;44.588;33.450;2023-02-15T04:31:10;4.32;70.28
76855;DHT22;66343;44.588;33.450;2023-02-15T04:33:40;4.32;69.90
76855;DHT22;66343;44.588;33.450;2023-02-15T04:36:12;4.29;69.32
76855;DHT22;66343;44.588;33.450;2023-02-15T04:38:45;4.30;68.89
76855;DHT22;66343;44.588;33.450;2023-02-15T04:41:17;4.31;69.21
76855;DHT22;66343;44.588;33.450;2023-02-15T04:43:49;4.23;69.07
76855;DHT22;66343;44.588;33.450;2023-02-15T04:46:20;4.28;69.37
76855;DHT22;66343;44.588;33.450;2023-02-15T04:49:00;4.32;69.36
76855;DHT22;66343;44.588;33.450;2023-02-15T04:51:30;4.24;69.39
76855;DHT22;66343;44.588;33.450;2023-02-15T04:54:04;4.21;69.53
76855;DHT22;66343;44.588;33.450;2023-02-15T04:56:33;4.23;69.57
76855;DHT22;66343;44.588;33.450;2023-02-15T04:59:04;4.20;69.65
76855;DHT22;66343;44.588;33.450;2023-02-15T05:01:40;4.21;70.20
76855;DHT22;66343;44.588;33.450;2023-02-15T05:04:13;4.34;69.50
76855;DHT22;66343;44.588;33.450;2023-02-15T05:06:42;4.30;69.48
76855;DHT22;66343;44.588;33.450;2023-02-15T05:09:14;4.28;69.55
76855;DHT22;66343;44.588;33.450;2023-02-15T05:11:46;4.28;68.81
76855;DHT22;66343;44.588;33.450;2023-02-15T05:14:16;4.20;68.80
76855;DHT22;66343;44.588;33.450;2023-02-15T05:16:50;4.21;69.54
76855;DHT22;66343;44.588;33.450;2023-02-15T05:19:22;4.24;69.71
76855;DHT22;66343;44.588;33.450;2023-02-15T05:21:53;4.26;69.71
76855;DHT22;66343;44.588;33.450;2023-02-15T05:24:25;4.28;69.50
76855;DHT22;66343;44.588;33.450;2023-02-15T05:27:15;4.20;68.83
76855;DHT22;66343;44.588;33.450;2023-02-15T05:30:07;4.20;69.01
76855;DHT22;66343;44.588;33.450;2023-02-15T05:32:43;4.19;69.13
76855;DHT22;66343;44.588;33.450;2023-02-15T05:35:14;4.19;68.90
76855;DHT22;66343;44.588;33.450;2023-02-15T05:37:46;4.15;69.23
76855;DHT22;66343;44.588;33.450;2023-02-15T05:40:18;4.20;69.14
76855;DHT22;66343;44.588;33.450;2023-02-15T05:42:51;4.19;69.29
76855;DHT22;66343;44.588;33.450;2023-02-15T05:45:22;4.18;68.45
76855;DHT22;66343;44.588;33.450;2023-02-15T05:47:52;4.17;69.07
76855;DHT22;66343;44.588;33.450;2023-02-15T05:50:23;4.23;68.73
76855;DHT22;66343;44.588;33.450;2023-02-15T05:52:53;4.33;68.62
76855;DHT22;66343;44.588;33.450;2023-02-15T05:55:22;4.36;67.83
76855;DHT22;66343;44.588;33.450;2023-02-15T05:57:51;4.61;71.11
76855;DHT22;66343;44.588;33.450;2023-02-15T06:00:23;4.75;67.64
76855;DHT22;66343;44.588;33.450;2023-02-15T06:02:52;4.68;65.66
76855;DHT22;66343;44.588;33.450;2023-02-15T06:05:21;4.53;66.32
76855;DHT22;66343;44.588;33.450;2023-02-15T06:07:51;4.49;67.59
76855;DHT22;66343;44.588;33.450;2023-02-15T06:10:21;4.50;67.68
76855;DHT22;66343;44.588;33.450;2023-02-15T06:12:50;4.53;67.60
76855;DHT22;66343;44.588;33.450;2023-02-15T06:15:33;4.53;66.83
76855;DHT22;66343;44.588;33.450;2023-02-15T06:18:06;4.51;67.24
76855;DHT22;66343;44.588;33.450;2023-02-15T06:20:38;4.46;67.23
76855;DHT22;66343;44.588;33.450;2023-02-15T06:23:12;4.39;66.99
76855;DHT22;66343;44.588;33.450;2023-02-15T06:25:46;4.38;67.55
76855;DHT22;66343;44.588;33.450;2023-02-15T06:28:20;4.44;67.23
76855;DHT22;66343;44.588;33.450;2023-02-15T06:30:55;4.48;67.28
76855;DHT22;66343;44.588;33.450;2023-02-15T06:33:29;4.47;67.55
76855;DHT22;66343;44.588;33.450;2023-02-15T06:36:02;4.53;66.79
76855;DHT22;66343;44.588;33.450;2023-02-15T06:38:35;4.59;67.06
76855;DHT22;66343;44.588;33.450;2023-02-15T06:41:04;4.67;66.99
76855;DHT22;66343;44.588;33.450;2023-02-15T06:43:37;4.68;67.37
76855;DHT22;66343;44.588;33.450;2023-02-15T06:46:09;4.68;66.43
76855;DHT22;66343;44.588;33.450;2023-02-15T06:48:40;4.67;65.77
76855;DHT22;66343;44.588;33.450;2023-02-15T06:51:12;4.67;66.25
76855;DHT22;66343;44.588;33.450;2023-02-15T06:53:41;4.66;64.77
76855;DHT22;66343;44.588;33.450;2023-02-15T06:56:13;4.65;65.63
76855;DHT22;66343;44.588;33.450;2023-02-15T06:58:47;4.67;67.17
76855;DHT22;66343;44.588;33.450;2023-02-15T07:01:18;4.74;66.75
76855;DHT22;66343;44.588;33.450;2023-02-15T07:03:52;4.83;66.52
76855;DHT22;66343;44.588;33.450;2023-02-15T07:06:33;4.77;65.69
76855;DHT22;66343;44.588;33.450;2023-02-15T07:09:05;4.83;65.62
76855;DHT22;66343;44.588;33.450;2023-02-15T07:11:34;4.87;66.02
76855;DHT22;66343;44.588;33.450;2023-02-15T07:14:26;4.98;66.43
76855;DHT22;66343;44.588;33.450;2023-02-15T07:16:56;5.02;66.36
76855;DHT22;66343;44.588;33.450;2023-02-15T07:19:25;5.02;66.07
76855;DHT22;66343;44.588;33.450;2023-02-15T07:21:57;5.04;65.41
76855;DHT22;66343;44.588;33.450;2023-02-15T07:24:26;5.11;64.27
76855;DHT22;66343;44.588;33.450;2023-02-15T07:27:00;5.11;64.08
76855;DHT22;66343;44.588;33.450;2023-02-15T07:29:30;5.00;63.89
76855;DHT22;66343;44.588;33.450;2023-02-15T07:31:59;4.96;64.84
76855;DHT22;66343;44.588;33.450;2023-02-15T07:34:29;4.97;64.96
76855;DHT22;66343;44.588;33.450;2023-02-15T07:36:58;5.02;64.63
76855;DHT22;66343;44.588;33.450;2023-02-15T07:39:29;5.03;64.99
76855;DHT22;66343;44.588;33.450;2023-02-15T07:42:01;5.12;64.43
76855;DHT22;66343;44.588;33.450;2023-02-15T07:44:31;5.04;64.88
76855;DHT22;66343;44.588;33.450;2023-02-15T07:47:03;5.07;64.30
76855;DHT22;66343;44.588;33.450;2023-02-15T07:49:35;5.09;65.42
76855;DHT22;66343;44.588;33.450;2023-02-15T07:52:07;5.12;64.82
76855;DHT22;66343;44.588;33.450;2023-02-15T07:54:40;5.10;64.59
76855;DHT22;66343;44.588;33.450;2023-02-15T07:57:08;5.06;64.74
76855;DHT22;66343;44.588;33.450;2023-02-15T07:59:41;5.07;64.36
76855;DHT22;66343;44.588;33.450;2023-02-15T08:02:10;5.09;63.73
76855;DHT22;66343;44.588;33.450;2023-02-15T08:04:39;5.12;63.34
76855;DHT22;66343;44.588;33.450;2023-02-15T08:07:08;5.22;63.57
76855;DHT22;66343;44.588;33.450;2023-02-15T08:09:38;5.36;61.42
76855;DHT22;66343;44.588;33.450;2023-02-15T08:12:07;5.34;61.31
76855;DHT22;66343;44.588;33.450;2023-02-15T08:14:40;5.33;62.45
76855;DHT22;66343;44.588;33.450;2023-02-15T08:17:27;5.28;61.68
76855;DHT22;66343;44.588;33.450;2023-02-15T08:19:59;5.30;61.68
76855;DHT22;66343;44.588;33.450;2023-02-15T08:22:33;5.30;62.33
76855;DHT22;66343;44.588;33.450;2023-02-15T08:25:03;5.40;62.72
76855;DHT22;66343;44.588;33.450;2023-02-15T08:27:34;5.56;61.79
76855;DHT22;66343;44.588;33.450;2023-02-15T08:30:04;5.65;61.81
76855;DHT22;66343;44.588;33.450;2023-02-15T08:32:38;5.81;60.90
76855;DHT22;66343;44.588;33.450;2023-02-15T08:35:07;5.81;60.17
76855;DHT22;66343;44.588;33.450;2023-02-15T08:37:40;5.80;60.62
76855;DHT22;66343;44.588;33.450;2023-02-15T08:40:09;5.89;60.24
76855;DHT22;66343;44.588;33.450;2023-02-15T08:42:45;5.98;60.57
76855;DHT22;66343;44.588;33.450;2023-02-15T08:45:14;5.92;60.05
76855;DHT22;66343;44.588;33.450;2023-02-15T08:47:46;5.75;60.93
76855;DHT22;66343;44.588;33.450;2023-02-15T08:50:15;5.60;61.79
76855;DHT22;66343;44.588;33.450;2023-02-15T08:52:44;5.68;62.07
76855;DHT22;66343;44.588;33.450;2023-02-15T08:55:16;5.62;62.77
76855;DHT22;66343;44.588;33.450;2023-02-15T08:57:45;5.60;61.71
76855;DHT22;66343;44.588;33.450;2023-02-15T09:00:18;5.59;61.54
76855;DHT22;66343;44.588;33.450;2023-02-15T09:02:47;5.54;61.26
76855;DHT22;66343;44.588;33.450;2023-02-15T09:05:17;5.48;59.78
76855;DHT22;66343;44.588;33.450;2023-02-15T09:07:47;5.47;60.35
76855;DHT22;66343;44.588;33.450;2023-02-15T09:10:16;5.51;61.50
76855;DHT22;66343;44.588;33.450;2023-02-15T09:12:45;5.59;60.13
76855;DHT22;66343;44.588;33.450;2023-02-15T09:15:16;5.65;60.39
76855;DHT22;66343;44.588;33.450;2023-02-15T09:17:47;5.82;61.21
76855;DHT22;66343;44.588;33.450;2023-02-15T09:20:16;5.91;59.34
76855;DHT22;66343;44.588;33.450;2023-02-15T09:22:45;5.90;59.88
76855;DHT22;66343;44.588;33.450;2023-02-15T09:25:19;5.93;59.64
76855;DHT22;66343;44.588;33.450;2023-02-15T09:27:51;5.89;57.84
76855;DHT22;66343;44.588;33.450;2023-02-15T09:30:20;5.89;58.35
76855;DHT22;66343;44.588;33.450;2023-02-15T09:32:50;6.01;59.32
76855;DHT22;66343;44.588;33.450;2023-02-15T09:35:20;6.11;58.95
76855;DHT22;66343;44.588;33.450;2023-02-15T09:37:59;6.02;58.65
76855;DHT22;66343;44.588;33.450;2023-02-15T09:40:33;5.97;57.24
76855;DHT22;66343;44.588;33.450;2023-02-15T09:43:14;5.96;58.54
76855;DHT22;66343;44.588;33.450;2023-02-15T09:46:21;6.07;59.09
76855;DHT22;66343;44.588;33.450;2023-02-15T09:49:15;6.16;59.12
76855;DHT22;66343;44.588;33.450;2023-02-15T09:52:17;6.11;58.40
76855;DHT22;66343;44.588;33.450;2023-02-15T09:55:35;6.00;59.10
76855;DHT22;66343;44.588;33.450;2023-02-15T10:15:29;6.09;58.07
76855;DHT22;66343;44.588;33.450;2023-02-15T10:24:18;6.22;57.63
76855;DHT22;66343;44.588;33.450;2023-02-15T10:26:56;6.06;57.52
76855;DHT22;66343;44.588;33.450;2023-02-15T10:29:37;5.99;58.67
76855;DHT22;66343;44.588;33.450;2023-02-15T10:32:27;5.86;59.51
76855;DHT22;66343;44.588;33.450;2023-02-15T10:38:06;5.87;59.39
76855;DHT22;66343;44.588;33.450;2023-02-15T10:46:35;5.79;60.19
76855;DHT22;66343;44.588;33.450;2023-02-15T10:55:18;5.97;59.16
76855;DHT22;66343;44.588;33.450;2023-02-15T11:06:25;5.96;56.26
76855;DHT22;66343;44.588;33.450;2023-02-15T11:09:04;5.95;56.77
76855;DHT22;66343;44.588;33.450;2023-02-15T11:11:42;6.01;57.33
76855;DHT22;66343;44.588;33.450;2023-02-15T11:17:48;6.02;58.15
76855;DHT22;66343;44.588;33.450;2023-02-15T11:22:54;6.04;55.00
76855;DHT22;66343;44.588;33.450;2023-02-15T11:25:32;6.14;57.31
76855;DHT22;66343;44.588;33.450;2023-02-15T11:28:05;6.24;56.69
76855;DHT22;66343;44.588;33.450;2023-02-15T11:30:49;6.24;55.16
76855;DHT22;66343;44.588;33.450;2023-02-15T11:33:26;6.24;55.79
76855;DHT22;66343;44.588;33.450;2023-02-15T11:36:05;6.21;56.73
76855;DHT22;66343;44.588;33.450;2023-02-15T11:38:41;6.17;57.51
76855;DHT22;66343;44.588;33.450;2023-02-15T11:41:19;6.04;59.30
76855;DHT22;66343;44.588;33.450;2023-02-15T11:44:06;5.94;57.98
76855;DHT22;66343;44.588;33.450;2023-02-15T11:46:36;5.86;58.43
76855;DHT22;66343;44.588;33.450;2023-02-15T11:49:28;5.90;56.55
76855;DHT22;66343;44.588;33.450;2023-02-15T11:52:00;5.89;57.58
76855;DHT22;66343;44.588;33.450;2023-02-15T11:54:36;5.89;56.66
76855;DHT22;66343;44.588;33.450;2023-02-15T11:57:15;5.96;56.51
76855;DHT22;66343;44.588;33.450;2023-02-15T11:59:56;6.04;58.40
76855;DHT22;66343;44.588;33.450;2023-02-15T12:02:36;6.04;58.64
76855;DHT22;66343;44.588;33.450;2023-02-15T12:05:17;6.10;58.40
76855;DHT22;66343;44.588;33.450;2023-02-15T12:08:24;6.04;58.16
76855;DHT22;66343;44.588;33.450;2023-02-15T12:11:05;5.98;57.74
76855;DHT22;66343;44.588;33.450;2023-02-15T12:13:36;5.95;57.74
76855;DHT22;66343;44.588;33.450;2023-02-15T12:16:09;6.12;57.14
76855;DHT22;66343;44.588;33.450;2023-02-15T12:18:46;6.28;57.56
76855;DHT22;66343;44.588;33.450;2023-02-15T12:21:32;6.36;57.41
76855;DHT22;66343;44.588;33.450;2023-02-15T12:24:25;6.42;57.61
76855;DHT22;66343;44.588;33.450;2023-02-15T12:27:17;6.30;55.29
76855;DHT22;66343;44.588;33.450;2023-02-15T12:29:58;6.20;54.94
76855;DHT22;66343;44.588;33.450;2023-02-15T12:35:46;6.12;57.55
76855;DHT22;66343;44.588;33.450;2023-02-15T12:38:24;6.05;56.45
76855;DHT22;66343;44.588;33.450;2023-02-15T12:41:03;6.01;57.75
76855;DHT22;66343;44.588;33.450;2023-02-15T12:43:37;5.99;59.81
76855;DHT22;66343;44.588;33.450;2023-02-15T12:46:25;6.00;58.55
76855;DHT22;66343;44.588;33.450;2023-02-15T12:52:00;5.92;57.47
76855;DHT22;66343;44.588;33.450;2023-02-15T12:54:36;5.87;56.78
76855;DHT22;66343;44.588;33.450;2023-02-15T12:57:29;5.86;55.27
76855;DHT22;66343;44.588;33.450;2023-02-15T13:00:04;6.00;56.81
76855;DHT22;66343;44.588;33.450;2023-02-15T13:02:49;6.01;55.58
76855;DHT22;66343;44.588;33.450;2023-02-15T13:08:18;5.94;58.82
76855;DHT22;66343;44.588;33.450;2023-02-15T13:13:31;5.86;56.84
76855;DHT22;66343;44.588;33.450;2023-02-15T13:16:11;5.93;57.63
76855;DHT22;66343;44.588;33.450;2023-02-15T13:18:46;5.85;59.61
76855;DHT22;66343;44.588;33.450;2023-02-15T13:21:23;5.85;58.51
76855;DHT22;66343;44.588;33.450;2023-02-15T13:26:43;5.69;57.68
76855;DHT22;66343;44.588;33.450;2023-02-15T13:29:30;5.72;58.70
76855;DHT22;66343;44.588;33.450;2023-02-15T13:32:32;5.67;57.58
76855;DHT22;66343;44.588;33.450;2023-02-15T13:35:05;5.67;56.66
76855;DHT22;66343;44.588;33.450;2023-02-15T13:37:49;5.66;57.84
76855;DHT22;66343;44.588;33.450;2023-02-15T13:40:53;5.63;57.54
76855;DHT22;66343;44.588;33.450;2023-02-15T13:43:52;5.65;56.91
76855;DHT22;66343;44.588;33.450;2023-02-15T13:49:50;5.67;56.35
76855;DHT22;66343;44.588;33.450;2023-02-15T13:52:23;5.66;54.41
76855;DHT22;66343;44.588;33.450;2023-02-15T14:01:15;5.65;52.37
76855;DHT22;66343;44.588;33.450;2023-02-15T14:15:25;5.51;58.84
76855;DHT22;66343;44.588;33.450;2023-02-15T14:20:57;5.03;60.18
76855;DHT22;66343;44.588;33.450;2023-02-15T14:23:35;4.84;59.08
76855;DHT22;66343;44.588;33.450;2023-02-15T14:31:36;4.78;56.90
76855;DHT22;66343;44.588;33.450;2023-02-15T14:37:11;4.63;54.52
76855;DHT22;66343;44.588;33.450;2023-02-15T14:43:24;4.80;53.92
76855;DHT22;66343;44.588;33.450;2023-02-15T14:48:56;5.01;58.51
76855;DHT22;66343;44.588;33.450;2023-02-15T14:59:45;5.15;52.84
76855;DHT22;66343;44.588;33.450;2023-02-15T15:07:49;5.10;49.02
76855;DHT22;66343;44.588;33.450;2023-02-15T15:10:37;5.20;53.21
76855;DHT22;66343;44.588;33.450;2023-02-15T15:19:11;5.26;55.08
76855;DHT22;66343;44.588;33.450;2023-02-15T15:21:55;5.26;56.45
76855;DHT22;66343;44.588;33.450;2023-02-15T15:27:39;5.23;52.44
76855;DHT22;66343;44.588;33.450;2023-02-15T15:35:43;5.31;55.41
76855;DHT22;66343;44.588;33.450;2023-02-15T15:39:18;5.28;55.77
76855;DHT22;66343;44.588;33.450;2023-02-15T15:44:31;5.28;54.51
76855;DHT22;66343;44.588;33.450;2023-02-15T15:50:17;5.12;57.38
76855;DHT22;66343;44.588;33.450;2023-02-15T15:52:54;5.11;55.96
76855;DHT22;66343;44.588;33.450;2023-02-15T15:55:31;5.08;56.58
76855;DHT22;66343;44.588;33.450;2023-02-15T15:58:05;5.01;56.13
76855;DHT22;66343;44.588;33.450;2023-02-15T16:00:42;5.00;55.65
76855;DHT22;66343;44.588;33.450;2023-02-15T16:03:27;5.04;56.12
76855;DHT22;66343;44.588;33.450;2023-02-15T16:06:04;5.10;56.58
76855;DHT22;66343;44.588;33.450;2023-02-15T16:08:37;5.13;55.85
76855;DHT22;66343;44.588;33.450;2023-02-15T16:11:16;5.07;56.48
76855;DHT22;66343;44.588;33.450;2023-02-15T16:13:52;5.09;55.52
76855;DHT22;66343;44.588;33.450;2023-02-15T16:16:27;5.05;54.71
76855;DHT22;66343;44.588;33.450;2023-02-15T16:19:02;5.06;54.98
76855;DHT22;66343;44.588;33.450;2023-02-15T16:21:35;5.10;54.01
76855;DHT22;66343;44.588;33.450;2023-02-15T16:29:34;5.15;53.82
76855;DHT22;66343;44.588;33.450;2023-02-15T16:32:14;5.17;52.06
76855;DHT22;66343;44.588;33.450;2023-02-15T16:35:16;5.16;52.52
76855;DHT22;66343;44.588;33.450;2023-02-15T16:37:56;5.18;54.09
76855;DHT22;66343;44.588;33.450;2023-02-15T16:40:36;5.20;55.38
76855;DHT22;66343;44.588;33.450;2023-02-15T16:43:16;5.13;54.65
76855;DHT22;66343;44.588;33.450;2023-02-15T16:45:51;5.08;54.83
76855;DHT22;66343;44.588;33.450;2023-02-15T16:48:27;5.08;55.56
76855;DHT22;66343;44.588;33.450;2023-02-15T16:51:00;5.03;54.31
76855;DHT22;66343;44.588;33.450;2023-02-15T16:53:34;5.05;55.31
76855;DHT22;66343;44.588;33.450;2023-02-15T16:56:10;5.07;55.45
76855;DHT22;66343;44.588;33.450;2023-02-15T16:58:48;5.04;55.09
76855;DHT22;66343;44.588;33.450;2023-02-15T17:01:20;5.03;54.40
76855;DHT22;66343;44.588;33.450;2023-02-15T17:04:11;4.95;52.73
76855;DHT22;66343;44.588;33.450;2023-02-15T17:07:17;4.95;50.95
76855;DHT22;66343;44.588;33.450;2023-02-15T17:13:05;4.87;50.55
76855;DHT22;66343;44.588;33.450;2023-02-15T17:18:44;4.93;51.53
76855;DHT22;66343;44.588;33.450;2023-02-15T17:21:20;4.94;52.74
76855;DHT22;66343;44.588;33.450;2023-02-15T17:23:58;4.92;52.69
76855;DHT22;66343;44.588;33.450;2023-02-15T17:26:35;4.91;52.43
76855;DHT22;66343;44.588;33.450;2023-02-15T17:32:00;4.96;52.34
76855;DHT22;66343;44.588;33.450;2023-02-15T17:37:27;4.93;52.54
76855;DHT22;66343;44.588;33.450;2023-02-15T17:40:27;4.95;53.29
76855;DHT22;66343;44.588;33.450;2023-02-15T17:43:02;4.97;53.90
76855;DHT22;66343;44.588;33.450;2023-02-15T17:45:40;4.97;51.37
76855;DHT22;66343;44.588;33.450;2023-02-15T17:48:22;4.94;51.58
76855;DHT22;66343;44.588;33.450;2023-02-15T17:50:52;4.93;51.91
76855;DHT22;66343;44.588;33.450;2023-02-15T17:53:23;4.90;53.17
76855;DHT22;66343;44.588;33.450;2023-02-15T17:55:54;4.87;54.78
76855;DHT22;66343;44.588;33.450;2023-02-15T17:58:25;4.93;54.69
76855;DHT22;66343;44.588;33.450;2023-02-15T18:00:57;4.96;53.68
76855;DHT22;66343;44.588;33.450;2023-02-15T18:03:49;4.93;51.85
76855;DHT22;66343;44.588;33.450;2023-02-15T18:06:43;4.88;52.66
76855;DHT22;66343;44.588;33.450;2023-02-15T18:09:31;4.89;52.94
76855;DHT22;66343;44.588;33.450;2023-02-15T18:12:25;4.84;53.94
76855;DHT22;66343;44.588;33.450;2023-02-15T18:14:57;4.80;53.73
76855;DHT22;66343;44.588;33.450;2023-02-15T18:17:42;4.80;54.03
76855;DHT22;66343;44.588;33.450;2023-02-15T18:20:21;4.77;53.46
76855;DHT22;66343;44.588;33.450;2023-02-15T18:22:57;4.75;52.42
76855;DHT22;66343;44.588;33.450;2023-02-15T18:25:31;4.74;53.34
76855;DHT22;66343;44.588;33.450;2023-02-15T18:28:15;4.77;53.30
76855;DHT22;66343;44.588;33.450;2023-02-15T18:30:46;4.77;52.43
76855;DHT22;66343;44.588;33.450;2023-02-15T18:36:01;4.66;53.06
76855;DHT22;66343;44.588;33.450;2023-02-15T18:38:34;4.67;52.67
76855;DHT22;66343;44.588;33.450;2023-02-15T18:41:06;4.66;52.86
76855;DHT22;66343;44.588;33.450;2023-02-15T18:43:38;4.63;54.91
76855;DHT22;66343;44.588;33.450;2023-02-15T18:46:11;4.60;54.75
76855;DHT22;66343;44.588;33.450;2023-02-15T18:48:43;4.61;55.01
76855;DHT22;66343;44.588;33.450;2023-02-15T18:51:23;4.54;54.01
76855;DHT22;66343;44.588;33.450;2023-02-15T18:53:53;4.51;54.05
76855;DHT22;66343;44.588;33.450;2023-02-15T18:56:26;4.53;55.32
76855;DHT22;66343;44.588;33.450;2023-02-15T18:58:58;4.58;54.86
76855;DHT22;66343;44.588;33.450;2023-02-15T19:01:31;4.61;55.36
76855;DHT22;66343;44.588;33.450;2023-02-15T19:04:03;4.64;55.96
76855;DHT22;66343;44.588;33.450;2023-02-15T19:06:33;4.65;56.03
76855;DHT22;66343;44.588;33.450;2023-02-15T19:09:05;4.63;55.93
76855;DHT22;66343;44.588;33.450;2023-02-15T19:11:37;4.63;55.68
76855;DHT22;66343;44.588;33.450;2023-02-15T19:16:53;4.75;55.01
76855;DHT22;66343;44.588;33.450;2023-02-15T19:19:27;4.77;54.48
76855;DHT22;66343;44.588;33.450;2023-02-15T19:22:03;4.73;54.42
76855;DHT22;66343;44.588;33.450;2023-02-15T19:24:38;4.71;54.94
76855;DHT22;66343;44.588;33.450;2023-02-15T19:27:22;4.74;54.87
76855;DHT22;66343;44.588;33.450;2023-02-15T19:29:53;4.75;54.78
76855;DHT22;66343;44.588;33.450;2023-02-15T19:32:25;4.80;54.67
76855;DHT22;66343;44.588;33.450;2023-02-15T19:34:56;4.79;54.23
76855;DHT22;66343;44.588;33.450;2023-02-15T19:37:38;4.75;52.50
76855;DHT22;66343;44.588;33.450;2023-02-15T19:40:35;4.66;51.97